sensor_id;sensor_type;location;lat;lon;timestamp;P1;durP1;ratioP1;P2;durP2;ratioP2
67065;SDS011;53978;43.846;25.952;2023-08-08T00:01:42;1.20;;;1.10;;
67065;SDS011;53978;43.846;25.952;2023-08-08T00:04:11;1.52;;;1.10;;
67065;SDS011;53978;43.846;25.952;2023-08-08T00:06:36;5.55;;;1.23;;
67065;SDS011;53978;43.846;25.952;2023-08-08T00:09:02;1.58;;;1.08;;
67065;SDS011;53978;43.846;25.952;2023-08-08T00:11:29;1.10;;;1.00;;
67065;SDS011;53978;43.846;25.952;2023-08-08T00:13:55;1.38;;;1.00;;
67065;SDS011;53978;43.846;25.952;2023-08-08T00:16:20;1.38;;;1.00;;
67065;SDS011;53978;43.846;25.952;2023-08-08T00:18:46;2.03;;;1.05;;
67065;SDS011;53978;43.846;25.952;2023-08-08T00:21:12;1.50;;;1.10;;
67065;SDS011;53978;43.846;25.952;2023-08-08T00:23:37;1.58;;;1.27;;
67065;SDS011;53978;43.846;25.952;2023-08-08T00:26:03;3.10;;;1.40;;
67065;SDS011;53978;43.846;25.952;2023-08-08T00:28:28;1.50;;;1.15;;
67065;SDS011;53978;43.846;25.952;2023-08-08T00:30:53;1.20;;;1.05;;
67065;SDS011;53978;43.846;25.952;2023-08-08T00:33:19;1.92;;;1.35;;
67065;SDS011;53978;43.846;25.952;2023-08-08T00:35:44;1.25;;;1.15;;
67065;SDS011;53978;43.846;25.952;2023-08-08T00:38:10;1.45;;;1.00;;
67065;SDS011;53978;43.846;25.952;2023-08-08T00:40:36;1.95;;;1.10;;
67065;SDS011;53978;43.846;25.952;2023-08-08T00:43:01;1.20;;;1.10;;
67065;SDS011;53978;43.846;25.952;2023-08-08T00:45:27;3.58;;;1.05;;
67065;SDS011;53978;43.846;25.952;2023-08-08T00:47:52;1.38;;;1.05;;
67065;SDS011;53978;43.846;25.952;2023-08-08T00:50:18;0.82;;;0.82;;
67065;SDS011;53978;43.846;25.952;2023-08-08T00:52:44;1.15;;;0.90;;
67065;SDS011;53978;43.846;25.952;2023-08-08T00:55:09;1.00;;;0.90;;
67065;SDS011;53978;43.846;25.952;2023-08-08T00:57:35;1.33;;;0.70;;
67065;SDS011;53978;43.846;25.952;2023-08-08T01:00:04;2.25;;;0.93;;
67065;SDS011;53978;43.846;25.952;2023-08-08T01:02:34;1.40;;;0.70;;
67065;SDS011;53978;43.846;25.952;2023-08-08T01:05:01;1.60;;;1.02;;
67065;SDS011;53978;43.846;25.952;2023-08-08T01:07:36;1.08;;;0.95;;
67065;SDS011;53978;43.846;25.952;2023-08-08T01:10:10;2.88;;;0.95;;
67065;SDS011;53978;43.846;25.952;2023-08-08T01:12:40;0.90;;;0.90;;
67065;SDS011;53978;43.846;25.952;2023-08-08T01:15:07;1.15;;;1.00;;
67065;SDS011;53978;43.846;25.952;2023-08-08T01:17:34;1.27;;;1.08;;
67065;SDS011;53978;43.846;25.952;2023-08-08T01:20:00;0.70;;;0.70;;
67065;SDS011;53978;43.846;25.952;2023-08-08T01:22:30;1.08;;;0.90;;
67065;SDS011;53978;43.846;25.952;2023-08-08T01:25:00;1.05;;;0.95;;
67065;SDS011;53978;43.846;25.952;2023-08-08T01:27:26;2.42;;;0.85;;
67065;SDS011;53978;43.846;25.952;2023-08-08T01:29:52;1.48;;;0.90;;
67065;SDS011;53978;43.846;25.952;2023-08-08T01:32:18;0.80;;;0.80;;
67065;SDS011;53978;43.846;25.952;2023-08-08T01:34:43;0.90;;;0.82;;
67065;SDS011;53978;43.846;25.952;2023-08-08T01:37:19;1.55;;;0.90;;
67065;SDS011;53978;43.846;25.952;2023-08-08T01:39:48;1.10;;;0.90;;
67065;SDS011;53978;43.846;25.952;2023-08-08T01:42:14;1.45;;;0.90;;
67065;SDS011;53978;43.846;25.952;2023-08-08T01:44:40;0.90;;;0.82;;
67065;SDS011;53978;43.846;25.952;2023-08-08T01:47:07;1.08;;;0.98;;
67065;SDS011;53978;43.846;25.952;2023-08-08T01:49:33;1.20;;;1.00;;
67065;SDS011;53978;43.846;25.952;2023-08-08T01:51:58;2.05;;;0.80;;
67065;SDS011;53978;43.846;25.952;2023-08-08T01:54:24;0.68;;;0.63;;
67065;SDS011;53978;43.846;25.952;2023-08-08T01:56:49;2.20;;;0.85;;
67065;SDS011;53978;43.846;25.952;2023-08-08T01:59:15;1.10;;;1.00;;
67065;SDS011;53978;43.846;25.952;2023-08-08T02:01:40;1.20;;;1.05;;
67065;SDS011;53978;43.846;25.952;2023-08-08T02:04:05;1.58;;;0.98;;
67065;SDS011;53978;43.846;25.952;2023-08-08T02:06:31;0.80;;;0.80;;
67065;SDS011;53978;43.846;25.952;2023-08-08T02:08:56;1.25;;;1.00;;
67065;SDS011;53978;43.846;25.952;2023-08-08T02:11:21;3.13;;;1.08;;
67065;SDS011;53978;43.846;25.952;2023-08-08T02:13:47;1.00;;;1.00;;
67065;SDS011;53978;43.846;25.952;2023-08-08T02:16:12;2.22;;;1.05;;
67065;SDS011;53978;43.846;25.952;2023-08-08T02:18:38;1.30;;;1.10;;
67065;SDS011;53978;43.846;25.952;2023-08-08T02:21:06;1.25;;;1.05;;
67065;SDS011;53978;43.846;25.952;2023-08-08T02:23:32;1.20;;;1.10;;
67065;SDS011;53978;43.846;25.952;2023-08-08T02:25:58;1.30;;;1.10;;
67065;SDS011;53978;43.846;25.952;2023-08-08T02:28:23;1.30;;;1.17;;
67065;SDS011;53978;43.846;25.952;2023-08-08T02:30:49;1.33;;;1.20;;
67065;SDS011;53978;43.846;25.952;2023-08-08T02:33:14;1.13;;;1.00;;
67065;SDS011;53978;43.846;25.952;2023-08-08T02:35:39;1.58;;;1.25;;
67065;SDS011;53978;43.846;25.952;2023-08-08T02:38:05;1.65;;;1.20;;
67065;SDS011;53978;43.846;25.952;2023-08-08T02:40:30;1.20;;;1.10;;
67065;SDS011;53978;43.846;25.952;2023-08-08T02:42:57;1.20;;;1.10;;
67065;SDS011;53978;43.846;25.952;2023-08-08T02:45:22;1.25;;;1.15;;
67065;SDS011;53978;43.846;25.952;2023-08-08T02:47:48;1.52;;;1.20;;
67065;SDS011;53978;43.846;25.952;2023-08-08T02:50:13;1.80;;;1.20;;
67065;SDS011;53978;43.846;25.952;2023-08-08T02:52:39;1.38;;;1.20;;
67065;SDS011;53978;43.846;25.952;2023-08-08T02:55:04;2.00;;;1.48;;
67065;SDS011;53978;43.846;25.952;2023-08-08T02:57:30;1.60;;;1.50;;
67065;SDS011;53978;43.846;25.952;2023-08-08T02:59:55;1.58;;;1.30;;
67065;SDS011;53978;43.846;25.952;2023-08-08T03:02:21;1.65;;;1.27;;
67065;SDS011;53978;43.846;25.952;2023-08-08T03:04:46;1.52;;;1.42;;
67065;SDS011;53978;43.846;25.952;2023-08-08T03:07:11;3.58;;;1.40;;
67065;SDS011;53978;43.846;25.952;2023-08-08T03:09:37;1.30;;;1.20;;
67065;SDS011;53978;43.846;25.952;2023-08-08T03:12:02;1.30;;;1.15;;
67065;SDS011;53978;43.846;25.952;2023-08-08T03:14:29;1.30;;;1.20;;
67065;SDS011;53978;43.846;25.952;2023-08-08T03:16:54;1.50;;;1.30;;
67065;SDS011;53978;43.846;25.952;2023-08-08T03:19:20;1.50;;;1.30;;
67065;SDS011;53978;43.846;25.952;2023-08-08T03:21:45;1.70;;;1.35;;
67065;SDS011;53978;43.846;25.952;2023-08-08T03:24:11;1.23;;;1.13;;
67065;SDS011;53978;43.846;25.952;2023-08-08T03:26:36;1.65;;;1.20;;
67065;SDS011;53978;43.846;25.952;2023-08-08T03:29:01;1.30;;;1.20;;
67065;SDS011;53978;43.846;25.952;2023-08-08T03:31:27;1.60;;;1.17;;
67065;SDS011;53978;43.846;25.952;2023-08-08T03:33:52;1.40;;;1.30;;
67065;SDS011;53978;43.846;25.952;2023-08-08T03:36:18;1.38;;;1.15;;
67065;SDS011;53978;43.846;25.952;2023-08-08T03:38:43;1.40;;;1.30;;
67065;SDS011;53978;43.846;25.952;2023-08-08T03:41:11;1.33;;;1.20;;
67065;SDS011;53978;43.846;25.952;2023-08-08T03:43:37;2.30;;;1.30;;
67065;SDS011;53978;43.846;25.952;2023-08-08T03:46:03;1.65;;;1.30;;
67065;SDS011;53978;43.846;25.952;2023-08-08T03:48:28;1.95;;;1.40;;
67065;SDS011;53978;43.846;25.952;2023-08-08T03:50:54;1.33;;;1.23;;
67065;SDS011;53978;43.846;25.952;2023-08-08T03:53:19;1.65;;;1.38;;
67065;SDS011;53978;43.846;25.952;2023-08-08T03:55:44;1.42;;;1.20;;
67065;SDS011;53978;43.846;25.952;2023-08-08T03:58:10;1.27;;;1.17;;
67065;SDS011;53978;43.846;25.952;2023-08-08T04:00:35;1.42;;;1.30;;
67065;SDS011;53978;43.846;25.952;2023-08-08T04:03:01;1.48;;;1.38;;
67065;SDS011;53978;43.846;25.952;2023-08-08T04:05:26;1.40;;;1.30;;
67065;SDS011;53978;43.846;25.952;2023-08-08T04:07:52;4.38;;;1.50;;
67065;SDS011;53978;43.846;25.952;2023-08-08T04:10:17;1.52;;;1.42;;
67065;SDS011;53978;43.846;25.952;2023-08-08T04:12:45;3.22;;;1.38;;
67065;SDS011;53978;43.846;25.952;2023-08-08T04:15:10;1.60;;;1.50;;
67065;SDS011;53978;43.846;25.952;2023-08-08T04:17:35;1.58;;;1.45;;
67065;SDS011;53978;43.846;25.952;2023-08-08T04:20:02;1.83;;;1.33;;
67065;SDS011;53978;43.846;25.952;2023-08-08T04:22:28;2.10;;;1.30;;
67065;SDS011;53978;43.846;25.952;2023-08-08T04:24:53;1.70;;;1.58;;
67065;SDS011;53978;43.846;25.952;2023-08-08T04:27:19;1.80;;;1.58;;
67065;SDS011;53978;43.846;25.952;2023-08-08T04:29:44;2.58;;;1.40;;
67065;SDS011;53978;43.846;25.952;2023-08-08T04:32:09;3.60;;;1.60;;
67065;SDS011;53978;43.846;25.952;2023-08-08T04:34:35;2.05;;;1.60;;
67065;SDS011;53978;43.846;25.952;2023-08-08T04:37:00;1.70;;;1.60;;
67065;SDS011;53978;43.846;25.952;2023-08-08T04:39:26;2.78;;;1.50;;
67065;SDS011;53978;43.846;25.952;2023-08-08T04:41:51;2.17;;;1.50;;
67065;SDS011;53978;43.846;25.952;2023-08-08T04:44:17;2.22;;;1.75;;
67065;SDS011;53978;43.846;25.952;2023-08-08T04:46:42;2.10;;;1.55;;
67065;SDS011;53978;43.846;25.952;2023-08-08T04:49:07;1.90;;;1.80;;
67065;SDS011;53978;43.846;25.952;2023-08-08T04:51:33;1.48;;;1.38;;
67065;SDS011;53978;43.846;25.952;2023-08-08T04:53:58;6.10;;;1.48;;
67065;SDS011;53978;43.846;25.952;2023-08-08T04:56:24;1.70;;;1.60;;
67065;SDS011;53978;43.846;25.952;2023-08-08T04:58:49;3.72;;;2.17;;
67065;SDS011;53978;43.846;25.952;2023-08-08T05:01:14;2.30;;;1.60;;
67065;SDS011;53978;43.846;25.952;2023-08-08T05:03:42;2.92;;;1.60;;
67065;SDS011;53978;43.846;25.952;2023-08-08T05:06:07;2.20;;;2.00;;
67065;SDS011;53978;43.846;25.952;2023-08-08T05:08:33;2.00;;;1.80;;
67065;SDS011;53978;43.846;25.952;2023-08-08T05:10:58;4.25;;;1.90;;
67065;SDS011;53978;43.846;25.952;2023-08-08T05:13:24;1.83;;;1.70;;
67065;SDS011;53978;43.846;25.952;2023-08-08T05:15:49;1.85;;;1.63;;
67065;SDS011;53978;43.846;25.952;2023-08-08T05:18:14;2.85;;;1.88;;
67065;SDS011;53978;43.846;25.952;2023-08-08T05:20:40;3.58;;;1.98;;
67065;SDS011;53978;43.846;25.952;2023-08-08T05:23:05;3.35;;;2.13;;
67065;SDS011;53978;43.846;25.952;2023-08-08T05:25:31;2.22;;;1.90;;
67065;SDS011;53978;43.846;25.952;2023-08-08T05:27:56;2.17;;;1.85;;
67065;SDS011;53978;43.846;25.952;2023-08-08T05:30:22;2.53;;;2.17;;
67065;SDS011;53978;43.846;25.952;2023-08-08T05:32:47;2.65;;;2.45;;
67065;SDS011;53978;43.846;25.952;2023-08-08T05:35:13;3.38;;;2.30;;
67065;SDS011;53978;43.846;25.952;2023-08-08T05:37:38;3.38;;;1.80;;
67065;SDS011;53978;43.846;25.952;2023-08-08T05:40:04;3.60;;;1.85;;
67065;SDS011;53978;43.846;25.952;2023-08-08T05:42:31;2.70;;;2.50;;
67065;SDS011;53978;43.846;25.952;2023-08-08T05:44:57;2.65;;;2.30;;
67065;SDS011;53978;43.846;25.952;2023-08-08T05:47:22;4.72;;;2.20;;
67065;SDS011;53978;43.846;25.952;2023-08-08T05:49:47;1.92;;;1.77;;
67065;SDS011;53978;43.846;25.952;2023-08-08T05:52:13;5.68;;;1.92;;
67065;SDS011;53978;43.846;25.952;2023-08-08T05:54:38;4.55;;;2.28;;
67065;SDS011;53978;43.846;25.952;2023-08-08T05:57:04;5.03;;;3.13;;
67065;SDS011;53978;43.846;25.952;2023-08-08T05:59:29;3.17;;;2.63;;
67065;SDS011;53978;43.846;25.952;2023-08-08T06:01:55;2.67;;;2.40;;
67065;SDS011;53978;43.846;25.952;2023-08-08T06:04:20;3.92;;;2.40;;
67065;SDS011;53978;43.846;25.952;2023-08-08T06:06:46;2.83;;;2.53;;
67065;SDS011;53978;43.846;25.952;2023-08-08T06:09:14;2.40;;;1.98;;
67065;SDS011;53978;43.846;25.952;2023-08-08T06:11:39;3.03;;;2.40;;
67065;SDS011;53978;43.846;25.952;2023-08-08T06:14:05;2.05;;;1.85;;
67065;SDS011;53978;43.846;25.952;2023-08-08T06:16:30;7.38;;;2.53;;
67065;SDS011;53978;43.846;25.952;2023-08-08T06:18:56;4.18;;;3.20;;
67065;SDS011;53978;43.846;25.952;2023-08-08T06:21:22;3.47;;;2.80;;
67065;SDS011;53978;43.846;25.952;2023-08-08T06:23:47;4.82;;;3.40;;
67065;SDS011;53978;43.846;25.952;2023-08-08T06:26:14;3.78;;;3.35;;
67065;SDS011;53978;43.846;25.952;2023-08-08T06:28:39;4.38;;;1.95;;
67065;SDS011;53978;43.846;25.952;2023-08-08T06:31:04;1.75;;;1.52;;
67065;SDS011;53978;43.846;25.952;2023-08-08T06:33:30;3.83;;;1.65;;
67065;SDS011;53978;43.846;25.952;2023-08-08T06:35:55;2.00;;;1.80;;
67065;SDS011;53978;43.846;25.952;2023-08-08T06:38:21;1.95;;;1.77;;
67065;SDS011;53978;43.846;25.952;2023-08-08T06:40:47;2.30;;;1.80;;
67065;SDS011;53978;43.846;25.952;2023-08-08T06:43:12;2.08;;;1.67;;
67065;SDS011;53978;43.846;25.952;2023-08-08T06:45:38;1.70;;;1.60;;
67065;SDS011;53978;43.846;25.952;2023-08-08T06:48:04;6.13;;;2.00;;
67065;SDS011;53978;43.846;25.952;2023-08-08T06:50:29;1.70;;;1.60;;
67065;SDS011;53978;43.846;25.952;2023-08-08T06:52:55;2.20;;;1.85;;
67065;SDS011;53978;43.846;25.952;2023-08-08T06:55:20;6.78;;;2.70;;
67065;SDS011;53978;43.846;25.952;2023-08-08T06:57:45;4.20;;;2.00;;
67065;SDS011;53978;43.846;25.952;2023-08-08T07:00:11;2.45;;;1.77;;
67065;SDS011;53978;43.846;25.952;2023-08-08T07:02:38;2.33;;;2.05;;
67065;SDS011;53978;43.846;25.952;2023-08-08T07:05:04;2.17;;;1.80;;
67065;SDS011;53978;43.846;25.952;2023-08-08T07:07:30;2.22;;;2.03;;
67065;SDS011;53978;43.846;25.952;2023-08-08T07:09:57;2.88;;;2.30;;
67065;SDS011;53978;43.846;25.952;2023-08-08T07:12:23;4.07;;;2.42;;
67065;SDS011;53978;43.846;25.952;2023-08-08T07:14:51;2.30;;;2.10;;
67065;SDS011;53978;43.846;25.952;2023-08-08T07:17:17;1.55;;;1.45;;
67065;SDS011;53978;43.846;25.952;2023-08-08T07:19:43;2.05;;;1.63;;
67065;SDS011;53978;43.846;25.952;2023-08-08T07:22:08;2.65;;;1.95;;
67065;SDS011;53978;43.846;25.952;2023-08-08T07:24:34;2.33;;;2.08;;
67065;SDS011;53978;43.846;25.952;2023-08-08T07:27:00;4.70;;;2.13;;
67065;SDS011;53978;43.846;25.952;2023-08-08T07:29:25;5.28;;;2.75;;
67065;SDS011;53978;43.846;25.952;2023-08-08T07:31:52;2.20;;;2.00;;
67065;SDS011;53978;43.846;25.952;2023-08-08T07:34:18;2.20;;;2.00;;
67065;SDS011;53978;43.846;25.952;2023-08-08T07:36:43;4.05;;;2.10;;
67065;SDS011;53978;43.846;25.952;2023-08-08T07:39:09;3.35;;;2.40;;
67065;SDS011;53978;43.846;25.952;2023-08-08T07:41:35;2.55;;;2.35;;
67065;SDS011;53978;43.846;25.952;2023-08-08T07:44:00;3.33;;;3.03;;
67065;SDS011;53978;43.846;25.952;2023-08-08T07:46:26;2.75;;;2.40;;
67065;SDS011;53978;43.846;25.952;2023-08-08T07:48:51;3.30;;;2.10;;
67065;SDS011;53978;43.846;25.952;2023-08-08T07:51:17;1.75;;;1.65;;
67065;SDS011;53978;43.846;25.952;2023-08-08T07:53:42;3.03;;;1.70;;
67065;SDS011;53978;43.846;25.952;2023-08-08T07:56:07;3.00;;;2.60;;
67065;SDS011;53978;43.846;25.952;2023-08-08T07:58:33;2.30;;;2.10;;
67065;SDS011;53978;43.846;25.952;2023-08-08T08:00:58;2.47;;;1.80;;
67065;SDS011;53978;43.846;25.952;2023-08-08T08:03:25;1.80;;;1.65;;
67065;SDS011;53978;43.846;25.952;2023-08-08T08:05:51;1.60;;;1.50;;
67065;SDS011;53978;43.846;25.952;2023-08-08T08:08:16;1.60;;;1.50;;
67065;SDS011;53978;43.846;25.952;2023-08-08T08:10:42;6.07;;;1.58;;
67065;SDS011;53978;43.846;25.952;2023-08-08T08:13:07;2.50;;;1.40;;
67065;SDS011;53978;43.846;25.952;2023-08-08T08:15:33;1.75;;;1.50;;
67065;SDS011;53978;43.846;25.952;2023-08-08T08:17:58;3.30;;;2.85;;
67065;SDS011;53978;43.846;25.952;2023-08-08T08:20:24;3.15;;;2.45;;
67065;SDS011;53978;43.846;25.952;2023-08-08T08:22:50;3.08;;;2.50;;
67065;SDS011;53978;43.846;25.952;2023-08-08T08:25:15;2.47;;;1.77;;
67065;SDS011;53978;43.846;25.952;2023-08-08T08:27:41;2.25;;;2.05;;
67065;SDS011;53978;43.846;25.952;2023-08-08T08:30:06;2.92;;;2.05;;
67065;SDS011;53978;43.846;25.952;2023-08-08T08:32:35;2.50;;;1.80;;
67065;SDS011;53978;43.846;25.952;2023-08-08T08:35:01;2.10;;;1.90;;
67065;SDS011;53978;43.846;25.952;2023-08-08T08:37:28;2.92;;;2.22;;
67065;SDS011;53978;43.846;25.952;2023-08-08T08:39:54;2.83;;;2.20;;
67065;SDS011;53978;43.846;25.952;2023-08-08T08:42:19;3.55;;;1.95;;
67065;SDS011;53978;43.846;25.952;2023-08-08T08:44:45;5.82;;;1.80;;
67065;SDS011;53978;43.846;25.952;2023-08-08T08:47:11;2.05;;;1.88;;
67065;SDS011;53978;43.846;25.952;2023-08-08T08:49:38;8.80;;;1.80;;
67065;SDS011;53978;43.846;25.952;2023-08-08T08:52:04;2.70;;;1.90;;
67065;SDS011;53978;43.846;25.952;2023-08-08T08:54:31;4.20;;;1.65;;
67065;SDS011;53978;43.846;25.952;2023-08-08T08:56:57;1.83;;;1.60;;
67065;SDS011;53978;43.846;25.952;2023-08-08T08:59:23;5.65;;;2.20;;
67065;SDS011;53978;43.846;25.952;2023-08-08T09:01:49;10.57;;;2.45;;
67065;SDS011;53978;43.846;25.952;2023-08-08T09:04:16;8.63;;;2.20;;
67065;SDS011;53978;43.846;25.952;2023-08-08T09:06:43;4.35;;;1.83;;
67065;SDS011;53978;43.846;25.952;2023-08-08T09:09:09;13.35;;;1.77;;
67065;SDS011;53978;43.846;25.952;2023-08-08T09:11:35;3.17;;;1.63;;
67065;SDS011;53978;43.846;25.952;2023-08-08T09:14:00;9.27;;;1.85;;
67065;SDS011;53978;43.846;25.952;2023-08-08T09:16:27;4.32;;;1.60;;
67065;SDS011;53978;43.846;25.952;2023-08-08T09:18:52;1.95;;;1.60;;
67065;SDS011;53978;43.846;25.952;2023-08-08T09:21:18;8.88;;;1.98;;
67065;SDS011;53978;43.846;25.952;2023-08-08T09:23:43;3.55;;;1.88;;
67065;SDS011;53978;43.846;25.952;2023-08-08T09:26:09;9.20;;;1.48;;
67065;SDS011;53978;43.846;25.952;2023-08-08T09:28:35;2.97;;;1.75;;
67065;SDS011;53978;43.846;25.952;2023-08-08T09:31:00;7.88;;;1.77;;
67065;SDS011;53978;43.846;25.952;2023-08-08T09:33:29;5.97;;;1.58;;
67065;SDS011;53978;43.846;25.952;2023-08-08T09:35:54;3.78;;;1.25;;
67065;SDS011;53978;43.846;25.952;2023-08-08T09:38:20;10.07;;;1.65;;
67065;SDS011;53978;43.846;25.952;2023-08-08T09:40:45;2.75;;;1.33;;
67065;SDS011;53978;43.846;25.952;2023-08-08T09:43:11;2.97;;;1.90;;
67065;SDS011;53978;43.846;25.952;2023-08-08T09:45:40;4.03;;;1.40;;
67065;SDS011;53978;43.846;25.952;2023-08-08T09:48:09;1.30;;;1.20;;
67065;SDS011;53978;43.846;25.952;2023-08-08T09:50:35;3.15;;;1.35;;
67065;SDS011;53978;43.846;25.952;2023-08-08T09:53:02;7.55;;;1.45;;
67065;SDS011;53978;43.846;25.952;2023-08-08T09:55:28;4.68;;;1.83;;
67065;SDS011;53978;43.846;25.952;2023-08-08T09:57:54;5.18;;;1.17;;
67065;SDS011;53978;43.846;25.952;2023-08-08T10:00:20;4.97;;;1.90;;
67065;SDS011;53978;43.846;25.952;2023-08-08T10:02:46;1.35;;;1.10;;
67065;SDS011;53978;43.846;25.952;2023-08-08T10:05:12;2.75;;;1.00;;
67065;SDS011;53978;43.846;25.952;2023-08-08T10:07:39;9.27;;;1.25;;
67065;SDS011;53978;43.846;25.952;2023-08-08T10:10:06;1.35;;;0.98;;
67065;SDS011;53978;43.846;25.952;2023-08-08T10:12:38;3.10;;;1.27;;
67065;SDS011;53978;43.846;25.952;2023-08-08T10:15:06;2.33;;;1.05;;
67065;SDS011;53978;43.846;25.952;2023-08-08T10:17:36;7.13;;;1.50;;
67065;SDS011;53978;43.846;25.952;2023-08-08T10:20:02;4.80;;;1.00;;
67065;SDS011;53978;43.846;25.952;2023-08-08T10:22:34;12.10;;;1.50;;
67065;SDS011;53978;43.846;25.952;2023-08-08T10:25:00;0.98;;;0.80;;
67065;SDS011;53978;43.846;25.952;2023-08-08T10:27:32;14.93;;;1.27;;
67065;SDS011;53978;43.846;25.952;2023-08-08T10:30:03;1.88;;;0.98;;
67065;SDS011;53978;43.846;25.952;2023-08-08T10:32:37;1.17;;;0.75;;
67065;SDS011;53978;43.846;25.952;2023-08-08T10:35:05;0.70;;;0.70;;
67065;SDS011;53978;43.846;25.952;2023-08-08T10:37:31;0.90;;;0.70;;
67065;SDS011;53978;43.846;25.952;2023-08-08T10:39:58;9.77;;;0.93;;
67065;SDS011;53978;43.846;25.952;2023-08-08T10:42:25;7.45;;;1.00;;
67065;SDS011;53978;43.846;25.952;2023-08-08T10:44:52;2.17;;;0.80;;
67065;SDS011;53978;43.846;25.952;2023-08-08T10:47:25;1.73;;;0.75;;
67065;SDS011;53978;43.846;25.952;2023-08-08T10:50:22;3.03;;;0.82;;
67065;SDS011;53978;43.846;25.952;2023-08-08T10:55:18;1.55;;;0.70;;
67065;SDS011;53978;43.846;25.952;2023-08-08T11:00:34;0.95;;;0.70;;
67065;SDS011;53978;43.846;25.952;2023-08-08T11:03:01;0.80;;;0.70;;
67065;SDS011;53978;43.846;25.952;2023-08-08T11:05:28;1.35;;;0.70;;
67065;SDS011;53978;43.846;25.952;2023-08-08T11:07:54;0.50;;;0.50;;
67065;SDS011;53978;43.846;25.952;2023-08-08T11:10:20;1.90;;;0.80;;
67065;SDS011;53978;43.846;25.952;2023-08-08T11:12:55;3.05;;;0.95;;
67065;SDS011;53978;43.846;25.952;2023-08-08T11:15:21;1.10;;;1.00;;
67065;SDS011;53978;43.846;25.952;2023-08-08T11:17:47;1.08;;;0.98;;
67065;SDS011;53978;43.846;25.952;2023-08-08T11:20:13;6.32;;;1.15;;
67065;SDS011;53978;43.846;25.952;2023-08-08T11:22:39;2.70;;;0.90;;
67065;SDS011;53978;43.846;25.952;2023-08-08T11:25:04;1.95;;;0.65;;
67065;SDS011;53978;43.846;25.952;2023-08-08T11:27:32;0.50;;;0.50;;
67065;SDS011;53978;43.846;25.952;2023-08-08T11:29:58;0.50;;;0.50;;
67065;SDS011;53978;43.846;25.952;2023-08-08T11:32:24;2.47;;;0.65;;
67065;SDS011;53978;43.846;25.952;2023-08-08T11:34:51;8.48;;;0.95;;
67065;SDS011;53978;43.846;25.952;2023-08-08T11:37:16;2.88;;;0.60;;
67065;SDS011;53978;43.846;25.952;2023-08-08T11:39:42;1.25;;;0.60;;
67065;SDS011;53978;43.846;25.952;2023-08-08T11:42:08;0.52;;;0.50;;
67065;SDS011;53978;43.846;25.952;2023-08-08T11:44:33;0.80;;;0.52;;
67065;SDS011;53978;43.846;25.952;2023-08-08T11:46:59;1.75;;;0.60;;
67065;SDS011;53978;43.846;25.952;2023-08-08T11:49:25;0.65;;;0.50;;
67065;SDS011;53978;43.846;25.952;2023-08-08T11:51:51;5.32;;;0.70;;
67065;SDS011;53978;43.846;25.952;2023-08-08T11:54:20;2.22;;;0.75;;
67065;SDS011;53978;43.846;25.952;2023-08-08T11:56:46;0.68;;;0.60;;
67065;SDS011;53978;43.846;25.952;2023-08-08T11:59:11;4.10;;;0.70;;
67065;SDS011;53978;43.846;25.952;2023-08-08T12:01:37;3.25;;;0.70;;
67065;SDS011;53978;43.846;25.952;2023-08-08T12:04:06;0.75;;;0.70;;
67065;SDS011;53978;43.846;25.952;2023-08-08T12:06:32;5.68;;;0.80;;
67065;SDS011;53978;43.846;25.952;2023-08-08T12:09:00;1.15;;;0.73;;
67065;SDS011;53978;43.846;25.952;2023-08-08T12:11:26;0.70;;;0.70;;
67065;SDS011;53978;43.846;25.952;2023-08-08T12:13:57;6.40;;;0.80;;
67065;SDS011;53978;43.846;25.952;2023-08-08T12:16:27;0.45;;;0.45;;
67065;SDS011;53978;43.846;25.952;2023-08-08T12:19:00;2.55;;;0.90;;
67065;SDS011;53978;43.846;25.952;2023-08-08T12:21:27;15.90;;;1.02;;
67065;SDS011;53978;43.846;25.952;2023-08-08T12:23:52;5.40;;;1.17;;
67065;SDS011;53978;43.846;25.952;2023-08-08T12:26:18;3.15;;;0.70;;
67065;SDS011;53978;43.846;25.952;2023-08-08T12:28:43;2.25;;;0.75;;
67065;SDS011;53978;43.846;25.952;2023-08-08T12:31:09;0.50;;;0.50;;
67065;SDS011;53978;43.846;25.952;2023-08-08T12:33:34;0.52;;;0.52;;
67065;SDS011;53978;43.846;25.952;2023-08-08T12:36:00;1.73;;;0.70;;
67065;SDS011;53978;43.846;25.952;2023-08-08T12:38:25;5.82;;;0.88;;
67065;SDS011;53978;43.846;25.952;2023-08-08T12:40:51;1.38;;;0.80;;
67065;SDS011;53978;43.846;25.952;2023-08-08T12:43:16;3.47;;;0.88;;
67065;SDS011;53978;43.846;25.952;2023-08-08T12:45:45;1.50;;;0.60;;
67065;SDS011;53978;43.846;25.952;2023-08-08T12:48:11;1.85;;;0.52;;
67065;SDS011;53978;43.846;25.952;2023-08-08T12:50:36;2.33;;;1.50;;
67065;SDS011;53978;43.846;25.952;2023-08-08T12:53:02;3.38;;;1.58;;
67065;SDS011;53978;43.846;25.952;2023-08-08T12:55:29;5.82;;;1.77;;
67065;SDS011;53978;43.846;25.952;2023-08-08T12:57:55;3.92;;;1.88;;
67065;SDS011;53978;43.846;25.952;2023-08-08T13:00:20;2.65;;;2.20;;
67065;SDS011;53978;43.846;25.952;2023-08-08T13:02:46;2.30;;;1.95;;
67065;SDS011;53978;43.846;25.952;2023-08-08T13:05:12;3.25;;;2.00;;
67065;SDS011;53978;43.846;25.952;2023-08-08T13:07:37;3.13;;;1.70;;
67065;SDS011;53978;43.846;25.952;2023-08-08T13:10:03;3.20;;;1.77;;
67065;SDS011;53978;43.846;25.952;2023-08-08T13:12:29;2.60;;;1.75;;
67065;SDS011;53978;43.846;25.952;2023-08-08T13:14:55;2.13;;;1.70;;
67065;SDS011;53978;43.846;25.952;2023-08-08T13:17:21;2.75;;;1.80;;
67065;SDS011;53978;43.846;25.952;2023-08-08T13:19:46;2.80;;;1.70;;
67065;SDS011;53978;43.846;25.952;2023-08-08T13:22:11;4.57;;;2.13;;
67065;SDS011;53978;43.846;25.952;2023-08-08T13:24:37;1.73;;;1.63;;
67065;SDS011;53978;43.846;25.952;2023-08-08T13:27:03;2.58;;;1.60;;
67065;SDS011;53978;43.846;25.952;2023-08-08T13:29:29;4.82;;;1.50;;
67065;SDS011;53978;43.846;25.952;2023-08-08T13:31:55;1.48;;;1.30;;
67065;SDS011;53978;43.846;25.952;2023-08-08T13:34:21;3.67;;;1.38;;
67065;SDS011;53978;43.846;25.952;2023-08-08T13:36:46;3.65;;;1.50;;
67065;SDS011;53978;43.846;25.952;2023-08-08T13:39:11;2.47;;;1.10;;
67065;SDS011;53978;43.846;25.952;2023-08-08T13:41:38;1.35;;;1.25;;
67065;SDS011;53978;43.846;25.952;2023-08-08T13:44:03;4.68;;;1.30;;
67065;SDS011;53978;43.846;25.952;2023-08-08T13:46:29;3.65;;;1.38;;
67065;SDS011;53978;43.846;25.952;2023-08-08T13:48:54;4.20;;;1.40;;
67065;SDS011;53978;43.846;25.952;2023-08-08T13:51:20;1.30;;;1.20;;
67065;SDS011;53978;43.846;25.952;2023-08-08T13:53:45;1.30;;;1.20;;
67065;SDS011;53978;43.846;25.952;2023-08-08T13:56:13;6.63;;;1.30;;
67065;SDS011;53978;43.846;25.952;2023-08-08T13:58:39;2.65;;;1.20;;
67065;SDS011;53978;43.846;25.952;2023-08-08T14:01:04;2.25;;;1.13;;
67065;SDS011;53978;43.846;25.952;2023-08-08T14:03:29;1.48;;;1.23;;
67065;SDS011;53978;43.846;25.952;2023-08-08T14:05:55;1.55;;;1.45;;
67065;SDS011;53978;43.846;25.952;2023-08-08T14:08:29;1.40;;;1.30;;
67065;SDS011;53978;43.846;25.952;2023-08-08T14:10:55;1.70;;;1.50;;
67065;SDS011;53978;43.846;25.952;2023-08-08T14:13:20;2.40;;;2.20;;
67065;SDS011;53978;43.846;25.952;2023-08-08T14:15:46;1.65;;;1.55;;
67065;SDS011;53978;43.846;25.952;2023-08-08T14:18:13;6.97;;;1.33;;
67065;SDS011;53978;43.846;25.952;2023-08-08T14:20:38;2.72;;;1.73;;
67065;SDS011;53978;43.846;25.952;2023-08-08T14:23:04;2.60;;;1.80;;
67065;SDS011;53978;43.846;25.952;2023-08-08T14:25:29;2.08;;;1.50;;
67065;SDS011;53978;43.846;25.952;2023-08-08T14:27:55;2.20;;;1.13;;
67065;SDS011;53978;43.846;25.952;2023-08-08T14:30:22;2.33;;;1.40;;
67065;SDS011;53978;43.846;25.952;2023-08-08T14:32:47;1.83;;;1.73;;